Time;durP1;ratioP1;P1;durP2;ratioP2;P2;SDS_P1;SDS_P2;PMS_P1;PMS_P2;Temp;Humidity;BMP_temperature;BMP_pressure;BME280_temperature;BME280_humidity;BME280_pressure;Samples;Min_cycle;Max_cycle;Signal;HPM_P1;HPM_P2
2021/09/27 00:01:08;;;;;;;;;9.67;8.00;;;;;18.96;73.67;101255.91;6270467;22;45118;-87
2021/09/27 00:03:35;;;;;;;;;7.67;5.00;;;;;18.92;73.54;101246.19;6237341;22;44851;-86
2021/09/27 00:06:00;;;;;;;;;6.67;4.67;;;;;18.92;73.90;101254.16;6269458;22;45429;-87
2021/09/27 00:08:27;;;;;;;;;8.00;7.00;;;;;18.92;73.64;101262.16;6250466;22;45294;-86
2021/09/27 00:11:00;;;;;;;;;6.00;6.00;;;;;18.94;73.79;101256.81;6220053;22;45380;-85
2021/09/27 00:13:28;;;;;;;;;9.67;6.00;;;;;18.90;73.61;101249.75;6247693;22;45247;-87
2021/09/27 00:15:55;;;;;;;;;7.00;7.00;;;;;18.94;73.63;101254.16;6219503;22;47316;-85
2021/09/27 00:18:21;;;;;;;;;9.33;6.00;;;;;18.87;73.97;101250.66;6249051;22;45230;-87
2021/09/27 00:20:52;;;;;;;;;6.00;6.00;;;;;18.94;73.62;101256.81;6228719;22;45263;-85
2021/09/27 00:23:19;;;;;;;;;8.00;7.00;;;;;18.93;73.75;101249.72;6255788;22;45218;-87
2021/09/27 00:25:45;;;;;;;;;5.00;5.00;;;;;18.92;73.80;101242.63;6256627;22;46003;-84
2021/09/27 00:28:11;;;;;;;;;5.00;4.00;;;;;18.85;73.67;101232.03;6270966;22;44582;-85
2021/09/27 00:30:37;;;;;;;;;6.00;5.67;;;;;18.84;73.97;101232.94;6269819;22;44665;-86
2021/09/27 00:33:04;;;;;;;;;7.00;7.00;;;;;18.85;73.65;101228.47;6243174;22;44761;-83
2021/09/27 00:35:32;;;;;;;;;7.33;6.00;;;;;18.89;73.60;101237.34;6258196;22;45195;-86
2021/09/27 00:37:58;;;;;;;;;7.00;6.00;;;;;18.86;73.82;101241.81;6255591;22;45259;-85
2021/09/27 00:40:28;;;;;;;;;6.00;6.00;;;;;18.91;73.76;101248.88;6256820;22;45339;-85
2021/09/27 00:42:55;;;;;;;;;7.00;6.33;;;;;18.90;74.03;101244.41;6260482;22;45098;-86
2021/09/27 00:45:24;;;;;;;;;7.00;6.00;;;;;18.90;73.67;101249.75;6256940;22;45167;-86
2021/09/27 00:47:50;;;;;;;;;6.67;5.67;;;;;18.88;74.08;101241.78;6259416;22;45272;-86
2021/09/27 00:50:19;;;;;;;;;7.67;7.67;;;;;18.86;73.72;101239.13;6230666;22;45342;-85
2021/09/27 00:52:46;;;;;;;;;12.00;8.00;;;;;18.85;73.79;101244.44;6224583;22;44855;-87
2021/09/27 00:55:14;;;;;;;;;9.33;6.33;;;;;18.83;73.83;101246.25;6252179;22;46735;-86
2021/09/27 00:57:41;;;;;;;;;11.67;7.00;;;;;18.80;73.97;101228.53;6258354;22;44670;-89
2021/09/27 01:00:10;;;;;;;;;7.00;7.00;;;;;18.83;73.47;101235.59;6255273;22;45086;-89
2021/09/27 01:02:35;;;;;;;;;8.00;6.00;;;;;18.79;73.82;101231.19;6260015;22;45372;-89
2021/09/27 01:05:02;;;;;;;;;6.00;6.00;;;;;18.81;73.98;101229.41;6232019;22;47964;-89
2021/09/27 01:07:39;;;;;;;;;9.00;7.00;;;;;18.80;73.73;101223.22;6264332;22;45174;-86
2021/09/27 01:10:26;;;;;;;;;9.00;9.00;;;;;18.79;73.79;101212.53;6270248;22;44690;-87
2021/09/27 01:13:29;;;;;;;;;12.33;8.00;;;;;18.78;73.73;101208.13;6251409;22;45191;-91
2021/09/27 01:15:55;;;;;;;;;8.00;6.00;;;;;18.76;73.93;101208.16;6247877;22;46215;-88
2021/09/27 01:18:26;;;;;;;;;7.33;7.00;;;;;18.75;73.62;101211.69;6246673;22;45235;-91
2021/09/27 01:21:07;;;;;;;;;11.00;8.67;;;;;18.71;74.12;101207.31;6246602;22;45321;-90
2021/09/27 01:23:39;;;;;;;;;9.00;8.00;;;;;18.73;73.82;101205.50;6246186;22;45348;-89
2021/09/27 01:26:10;;;;;;;;;8.67;7.00;;;;;18.72;73.69;101204.63;6246804;22;46322;-90
2021/09/27 01:29:04;;;;;;;;;7.00;7.00;;;;;18.68;73.94;101210.88;6246077;22;45382;-88
2021/09/27 01:32:06;;;;;;;;;6.67;6.33;;;;;18.70;73.94;101222.38;6247015;22;45239;-89
2021/09/27 01:34:54;;;;;;;;;12.67;9.00;;;;;18.69;73.63;101214.41;6247722;22;45089;-91
2021/09/27 01:37:43;;;;;;;;;8.67;6.33;;;;;18.67;73.94;101205.56;6123143;23;45527;-90
2021/09/27 01:40:29;;;;;;;;;7.67;7.00;;;;;18.58;73.70;101191.44;6122840;23;45370;-90
2021/09/27 01:43:23;;;;;;;;;8.00;6.67;;;;;18.60;73.86;101200.28;6126343;23;45329;-89
2021/09/27 01:46:10;;;;;;;;;9.67;8.00;;;;;18.61;73.88;101204.72;6126461;23;45299;-90
2021/09/27 01:49:00;;;;;;;;;8.67;8.00;;;;;18.61;74.13;101203.84;6127277;23;46514;-88
2021/09/27 01:51:39;;;;;;;;;9.00;7.67;;;;;18.60;74.00;101200.28;6125592;23;45291;-88
2021/09/27 01:54:28;;;;;;;;;10.67;7.33;;;;;18.54;73.84;101189.69;6124835;23;45258;-91
2021/09/27 01:57:08;;;;;;;;;7.00;5.00;;;;;18.58;74.28;101191.44;6099997;23;45219;-86
2021/09/27 01:59:48;;;;;;;;;8.67;8.67;;;;;18.58;74.08;101179.91;6125625;23;45809;-87
2021/09/27 02:02:22;;;;;;;;;6.33;6.33;;;;;18.56;73.73;101174.59;6126016;23;45327;-90
2021/09/27 02:05:21;;;;;;;;;8.67;7.67;;;;;18.56;73.89;101174.59;6100743;23;45377;-89
2021/09/27 02:08:00;;;;;;;;;10.00;8.00;;;;;18.48;74.04;101164.03;6124470;23;45405;-89
2021/09/27 02:10:35;;;;;;;;;8.33;8.00;;;;;18.51;73.81;101157.75;6131094;23;46548;-89
2021/09/27 02:13:05;;;;;;;;;7.67;7.67;;;;;18.45;74.00;101155.16;6130573;23;45340;-90
2021/09/27 02:15:37;;;;;;;;;7.00;7.00;;;;;18.52;74.12;101172.84;6245963;22;45373;-91
2021/09/27 02:18:14;;;;;;;;;11.67;8.67;;;;;18.50;73.91;101164.00;6249483;22;45161;-91
2021/09/27 02:20:50;;;;;;;;;6.00;6.00;;;;;18.46;73.72;101154.28;6257733;22;46179;-87
2021/09/27 02:23:24;;;;;;;;;10.33;9.00;;;;;18.38;73.95;101147.22;6251360;22;45261;-91
2021/09/27 02:25:50;;;;;;;;;9.00;8.00;;;;;18.50;74.00;101166.66;6248136;22;45186;-89
2021/09/27 02:28:21;;;;;;;;;7.00;7.00;;;;;18.49;73.93;101180.84;6220660;22;45260;-89
2021/09/27 02:31:06;;;;;;;;;8.33;8.00;;;;;18.48;73.82;101185.31;6220219;22;48141;-90
2021/09/27 02:33:47;;;;;;;;;8.67;8.67;;;;;18.43;73.61;101175.59;6248022;22;45174;-91
2021/09/27 02:36:23;;;;;;;;;9.00;8.00;;;;;18.47;74.05;101180.88;6220443;22;45281;-89
2021/09/27 02:38:54;;;;;;;;;11.67;8.00;;;;;18.45;74.14;101180.00;6220426;22;45248;-91
2021/09/27 02:41:27;;;;;;;;;9.67;8.67;;;;;18.40;73.91;101172.06;6247946;22;46235;-89
2021/09/27 02:43:53;;;;;;;;;11.67;9.67;;;;;18.38;74.07;101159.69;6221330;22;45714;-88
2021/09/27 02:46:19;;;;;;;;;8.00;7.33;;;;;18.40;74.14;101166.72;6248821;22;45148;-90
2021/09/27 02:49:28;;;;;;;;;12.67;7.33;;;;;18.39;74.35;101164.09;6248982;22;45094;-90
2021/09/27 02:51:33;;;;;;;;;13.00;10.00;;;;;18.40;74.24;101161.41;6238825;22;46049;-88
2021/09/27 02:53:59;;;;;;;;;11.67;10.67;;;;;18.40;74.17;101156.09;6247896;22;45241;-91
2021/09/27 02:56:47;;;;;;;;;11.67;10.33;;;;;18.34;74.34;101165.91;6248831;22;45217;-89
2021/09/27 02:59:18;;;;;;;;;11.33;11.33;;;;;18.33;74.00;101158.81;6221892;22;45353;-90
2021/09/27 03:01:58;;;;;;;;;11.00;9.33;;;;;18.33;74.21;101159.72;6249143;22;46270;-89
2021/09/27 03:04:36;;;;;;;;;10.67;9.67;;;;;18.40;74.20;101160.53;6248578;22;45098;-90
2021/09/27 03:07:04;;;;;;;;;13.00;8.33;;;;;18.40;74.12;101150.75;6248624;22;45253;-86
2021/09/27 03:09:55;;;;;;;;;11.33;10.00;;;;;18.39;73.79;101164.97;6249083;22;45220;-91
2021/09/27 03:12:44;;;;;;;;;11.00;11.00;;;;;18.37;74.42;101172.09;6248560;22;45321;-88
2021/09/27 03:15:48;;;;;;;;;11.00;11.00;;;;;18.31;74.36;101161.50;6248123;22;45262;-91
2021/09/27 03:18:28;;;;;;;;;10.00;10.00;;;;;18.30;74.36;101149.06;6066022;23;45232;-88
2021/09/27 03:21:06;;;;;;;;;7.00;7.00;;;;;18.33;74.32;101154.38;6066658;23;45278;-88
2021/09/27 03:23:53;;;;;;;;;10.67;10.67;;;;;18.32;74.36;101152.59;6065483;23;46422;-91
2021/09/27 03:26:49;;;;;;;;;12.00;12.00;;;;;18.29;74.14;101160.63;6066425;23;45301;-92
2021/09/27 03:29:39;;;;;;;;;13.00;9.67;;;;;18.28;74.54;101153.53;6066178;23;45384;-89
2021/09/27 03:32:07;;;;;;;;;13.33;10.33;;;;;18.29;74.48;101152.66;6066845;23;45320;-88
2021/09/27 03:34:42;;;;;;;;;14.67;11.67;;;;;18.28;74.53;101151.75;6065945;23;48514;-90
2021/09/27 03:37:46;;;;;;;;;12.00;10.67;;;;;18.31;74.50;101156.19;6069224;23;45417;-88
2021/09/27 03:40:26;;;;;;;;;9.67;9.67;;;;;18.32;74.47;101168.56;6071689;23;45443;-88
2021/09/27 03:43:09;;;;;;;;;11.67;10.67;;;;;18.31;74.50;101166.81;6076473;23;45235;-86
2021/09/27 03:45:54;;;;;;;;;9.67;9.67;;;;;18.30;74.35;101175.69;6079575;23;46295;-87
2021/09/27 03:48:51;;;;;;;;;10.00;8.00;;;;;18.27;74.15;101173.91;6071789;23;45281;-88
2021/09/27 03:51:27;;;;;;;;;9.00;8.33;;;;;18.24;74.63;101165.09;6065256;23;45259;-88
2021/09/27 03:53:59;;;;;;;;;11.33;10.00;;;;;18.32;74.54;101163.25;6069947;22;45466;-87
2021/09/27 03:56:51;;;;;;;;;12.67;10.00;;;;;18.27;74.45;101162.41;6217368;22;45602;-87
2021/09/27 03:59:29;;;;;;;;;10.33;8.00;;;;;18.28;74.37;101173.03;6217526;22;45288;-90
2021/09/27 04:02:15;;;;;;;;;9.00;9.00;;;;;18.27;74.09;101175.72;6217729;22;45240;-91
2021/09/27 04:05:01;;;;;;;;;12.00;10.33;;;;;18.30;74.43;101169.50;6217995;22;45366;-89
2021/09/27 04:07:58;;;;;;;;;8.00;8.00;;;;;18.29;74.36;101173.94;6224972;22;47360;-87
2021/09/27 04:10:57;;;;;;;;;9.67;9.67;;;;;18.34;74.08;101177.44;6216863;22;45154;-90
2021/09/27 04:13:42;;;;;;;;;10.67;9.67;;;;;18.34;74.05;101166.78;6190696;22;45373;-86
2021/09/27 04:16:37;;;;;;;;;9.33;9.33;;;;;18.30;73.65;101175.69;6222513;22;45375;-89
2021/09/27 04:19:26;;;;;;;;;10.00;10.00;;;;;18.25;74.02;101173.06;6230911;22;45477;-85
2021/09/27 04:22:03;;;;;;;;;8.00;7.00;;;;;18.27;73.98;101173.91;6233361;22;45665;-85
2021/09/27 04:24:50;;;;;;;;;9.33;8.00;;;;;18.27;73.68;101173.91;6220664;22;45213;-91
2021/09/27 04:27:33;;;;;;;;;8.00;6.67;;;;;18.23;73.63;101166.00;6215815;22;45200;-90
2021/09/27 04:30:32;;;;;;;;;7.33;6.33;;;;;18.27;73.58;101165.09;6230905;22;46526;-88
2021/09/27 04:33:21;;;;;;;;;10.00;8.67;;;;;18.24;73.73;101149.13;6248819;22;45269;-91
2021/09/27 04:36:10;;;;;;;;;7.67;7.67;;;;;18.21;73.31;101144.69;6224829;22;45282;-88
2021/09/27 04:38:37;;;;;;;;;8.00;7.33;;;;;18.23;73.45;101139.38;6251737;22;45154;-91
2021/09/27 04:41:02;;;;;;;;;5.00;5.00;;;;;18.29;73.32;101152.66;6251567;22;46472;-90
2021/09/27 04:43:38;;;;;;;;;8.00;7.33;;;;;18.26;73.48;101157.97;6251306;22;45229;-88
2021/09/27 04:46:18;;;;;;;;;8.00;6.00;;;;;18.24;73.08;101149.13;6224702;22;45351;-88
2021/09/27 04:48:43;;;;;;;;;8.67;6.00;;;;;18.23;73.24;101150.03;6253831;22;45153;-87
2021/09/27 04:51:36;;;;;;;;;10.67;6.67;;;;;18.21;73.35;101141.19;6240013;22;47157;-87
2021/09/27 04:54:14;;;;;;;;;10.33;8.00;;;;;18.20;73.13;101134.97;6236486;22;45140;-87
2021/09/27 04:57:08;;;;;;;;;8.33;6.33;;;;;18.18;73.32;101136.75;6234935;22;44623;-86
2021/09/27 04:59:43;;;;;;;;;7.33;7.33;;;;;18.17;73.16;101138.53;6081533;23;44788;-87
2021/09/27 05:02:14;;;;;;;;;7.00;7.00;;;;;18.12;73.03;101131.44;6080504;23;45592;-86
2021/09/27 05:04:49;;;;;;;;;9.33;7.67;;;;;18.10;73.31;101126.16;6078539;23;44890;-87
2021/09/27 05:07:26;;;;;;;;;9.67;7.00;;;;;18.09;73.65;101124.38;6075629;23;45244;-89
2021/09/27 05:10:28;;;;;;;;;5.33;4.33;;;;;18.08;73.14;101127.94;6067321;23;45237;-90
2021/09/27 05:13:21;;;;;;;;;4.67;4.67;;;;;18.08;73.52;101127.94;6067598;23;46292;-86
2021/09/27 05:16:05;;;;;;;;;6.67;5.67;;;;;18.06;73.22;101119.09;6067174;23;44781;-90
2021/09/27 05:18:55;;;;;;;;;6.33;6.33;;;;;18.02;73.50;101120.88;6067626;23;45256;-91
2021/09/27 05:21:26;;;;;;;;;7.33;6.67;;;;;18.02;73.38;101104.06;6068472;23;45299;-86
2021/09/27 05:24:49;;;;;;;;;8.67;6.33;;;;;18.02;73.41;101117.34;6066239;23;47480;-89
2021/09/27 05:27:51;;;;;;;;;8.00;6.00;;;;;18.01;73.44;101103.16;6043152;23;45189;-88
2021/09/27 05:30:42;;;;;;;;;10.00;8.33;;;;;17.98;73.51;101107.63;6046229;23;45379;-89
2021/09/27 05:33:28;;;;;;;;;8.67;8.67;;;;;18.01;73.41;101115.56;6077940;23;45290;-87
2021/09/27 05:36:37;;;;;;;;;8.67;7.67;;;;;17.99;73.39;101122.69;6174895;22;45281;-86
2021/09/27 05:39:10;;;;;;;;;10.00;9.67;;;;;17.93;73.94;101124.50;6273566;22;44644;-87
2021/09/27 05:42:02;;;;;;;;;8.33;6.67;;;;;17.97;73.82;101127.13;6235101;22;44710;-85
2021/09/27 05:44:51;;;;;;;;;11.00;10.33;;;;;17.97;74.04;101103.19;6219134;22;45325;-82
2021/09/27 05:48:01;;;;;;;;;10.67;7.67;;;;;17.96;73.92;101096.97;6221282;22;45342;-82
2021/09/27 05:50:48;;;;;;;;;11.67;8.67;;;;;17.97;73.83;101100.53;6246328;22;45505;-83
2021/09/27 05:53:27;;;;;;;;;11.67;9.67;;;;;17.96;73.95;101102.28;6246622;22;45247;-83
2021/09/27 05:56:07;;;;;;;;;10.33;9.00;;;;;17.96;73.59;101101.44;6246116;22;45211;-82
2021/09/27 05:58:42;;;;;;;;;11.67;9.00;;;;;17.97;74.05;101103.19;6244890;22;45303;-81
2021/09/27 06:01:14;;;;;;;;;11.00;9.00;;;;;17.96;74.08;101110.28;6245724;22;45386;-81
2021/09/27 06:04:15;;;;;;;;;12.67;11.00;;;;;17.94;73.98;101101.44;6246057;22;45156;-80
2021/09/27 06:06:50;;;;;;;;;8.67;8.67;;;;;17.97;73.98;101116.47;6245979;22;45275;-85
2021/09/27 06:09:35;;;;;;;;;9.33;8.00;;;;;17.94;73.92;101104.97;6245904;22;45391;-81
2021/09/27 06:12:19;;;;;;;;;10.67;7.33;;;;;17.97;74.14;101119.16;6244223;22;45273;-86
2021/09/27 06:14:46;;;;;;;;;8.00;7.00;;;;;18.00;73.87;101137.75;6245618;22;45220;-81
2021/09/27 06:17:30;;;;;;;;;7.33;7.33;;;;;18.00;74.07;101140.41;6245885;22;45329;-80
2021/09/27 06:20:14;;;;;;;;;9.00;7.67;;;;;18.01;74.01;101142.16;6246075;22;45372;-80
2021/09/27 06:22:40;;;;;;;;;7.67;6.67;;;;;18.03;74.35;101141.28;6246064;22;45206;-80
2021/09/27 06:25:36;;;;;;;;;8.33;6.67;;;;;18.04;74.30;101143.03;6245681;22;45274;-81
2021/09/27 06:28:13;;;;;;;;;9.33;6.00;;;;;18.08;74.20;101137.69;6245268;22;45400;-81
2021/09/27 06:30:54;;;;;;;;;7.33;7.00;;;;;18.11;74.21;101135.00;6245092;22;45427;-80
2021/09/27 06:33:39;;;;;;;;;9.67;8.67;;;;;18.13;74.02;101128.78;6245695;22;45251;-81
2021/09/27 06:36:07;;;;;;;;;8.00;6.67;;;;;18.13;73.80;101131.44;6246056;22;45327;-81
2021/09/27 06:38:36;;;;;;;;;8.00;7.33;;;;;18.19;74.02;101135.00;6245991;22;45189;-84
2021/09/27 06:41:05;;;;;;;;;7.00;4.33;;;;;18.19;73.64;101142.97;6247682;22;46079;-88
2021/09/27 06:43:30;;;;;;;;;9.67;7.00;;;;;18.20;73.46;101132.31;6247135;22;45286;-80
2021/09/27 06:45:56;;;;;;;;;8.00;7.00;;;;;18.20;73.66;101129.66;6248575;22;45234;-80
2021/09/27 06:48:24;;;;;;;;;7.67;6.67;;;;;18.16;73.53;101147.38;6245686;22;45320;-80
2021/09/27 06:50:50;;;;;;;;;9.33;7.00;;;;;18.21;73.85;101149.16;6246143;22;46100;-79
2021/09/27 06:53:16;;;;;;;;;7.00;5.67;;;;;18.22;73.87;101151.81;6245783;22;45227;-83
2021/09/27 06:55:41;;;;;;;;;6.67;6.33;;;;;18.26;73.93;101136.69;6246581;22;45241;-82
2021/09/27 06:58:07;;;;;;;;;7.33;7.33;;;;;18.29;73.64;101120.72;6249120;22;45268;-83
2021/09/27 07:00:33;;;;;;;;;6.33;5.67;;;;;18.30;73.88;101122.47;6257210;22;45332;-84
2021/09/27 07:02:59;;;;;;;;;8.67;6.33;;;;;18.32;73.97;101133.97;6257247;22;45253;-83
2021/09/27 07:05:25;;;;;;;;;9.00;7.00;;;;;18.29;74.08;101120.72;6256587;22;45201;-85
2021/09/27 07:07:50;;;;;;;;;8.00;5.33;;;;;18.33;73.75;101138.41;6250176;22;45249;-91
2021/09/27 07:10:20;;;;;;;;;6.67;6.67;;;;;18.30;73.68;101132.25;6250126;22;45620;-84
2021/09/27 07:12:46;;;;;;;;;6.67;6.33;;;;;18.34;73.82;101137.50;6250653;22;44614;-85
2021/09/27 07:15:12;;;;;;;;;7.00;6.00;;;;;18.26;73.88;101131.38;6250063;22;45408;-84
2021/09/27 07:17:38;;;;;;;;;7.33;5.67;;;;;18.32;73.61;101131.31;6249150;22;45235;-87
2021/09/27 07:20:08;;;;;;;;;8.00;6.00;;;;;18.32;74.13;101136.63;6248799;22;45958;-88
2021/09/27 07:22:33;;;;;;;;;6.67;5.00;;;;;18.35;73.99;101138.41;6248312;22;45161;-87
2021/09/27 07:24:59;;;;;;;;;6.33;4.67;;;;;18.35;73.83;101139.28;6248146;22;45208;-88
2021/09/27 07:27:25;;;;;;;;;7.00;5.00;;;;;18.29;73.79;101126.03;6249343;22;45359;-90
2021/09/27 07:29:51;;;;;;;;;4.33;4.33;;;;;18.36;73.99;101138.38;6219245;22;48045;-84
2021/09/27 07:32:16;;;;;;;;;6.67;5.33;;;;;18.32;73.96;101131.31;6248548;22;45197;-86
2021/09/27 07:34:42;;;;;;;;;8.00;6.00;;;;;18.32;73.97;101125.13;6254037;22;45268;-82
2021/09/27 07:37:07;;;;;;;;;6.33;5.33;;;;;18.31;74.07;101124.25;6257464;22;45326;-83
2021/09/27 07:39:33;;;;;;;;;5.33;4.67;;;;;18.31;74.38;101124.25;6253768;22;45625;-84
2021/09/27 07:41:58;;;;;;;;;7.00;5.00;;;;;18.29;74.53;101120.72;6252012;22;45288;-90
2021/09/27 07:44:24;;;;;;;;;10.33;6.33;;;;;18.31;74.41;101124.25;6248153;22;45242;-85
2021/09/27 07:46:49;;;;;;;;;9.33;7.00;;;;;18.33;74.35;101142.84;6247547;22;45233;-86
2021/09/27 07:49:14;;;;;;;;;7.00;6.33;;;;;18.30;74.16;101122.47;6247021;22;45824;-84
2021/09/27 07:51:41;;;;;;;;;9.00;6.33;;;;;18.24;74.59;101114.53;6247235;22;45325;-88
2021/09/27 07:54:07;;;;;;;;;8.67;7.67;;;;;18.27;74.49;101133.16;6219334;22;45214;-85
2021/09/27 07:56:32;;;;;;;;;5.67;5.67;;;;;18.27;74.48;101120.69;6248202;22;45220;-90
2021/09/27 07:58:58;;;;;;;;;11.00;9.67;;;;;18.23;74.36;101115.44;6219788;22;46253;-89
2021/09/27 08:01:23;;;;;;;;;7.00;7.00;;;;;18.29;74.58;101128.69;6254141;22;45110;-86
2021/09/27 08:03:48;;;;;;;;;8.00;7.67;;;;;18.18;74.52;101112.81;6248936;22;45222;-86
2021/09/27 08:06:14;;;;;;;;;7.00;7.00;;;;;18.25;74.47;101135.78;6219948;22;45490;-91
2021/09/27 08:08:40;;;;;;;;;8.00;7.00;;;;;18.22;74.34;101130.53;6248031;22;45240;-89
2021/09/27 08:11:06;;;;;;;;;7.67;6.67;;;;;18.23;74.40;101131.41;6224315;22;45180;-83
2021/09/27 08:13:31;;;;;;;;;6.33;6.33;;;;;18.18;74.54;101126.13;6255632;22;45252;-87
2021/09/27 08:15:57;;;;;;;;;8.67;7.33;;;;;18.20;74.54;101128.75;6255111;22;45253;-84
2021/09/27 08:18:23;;;;;;;;;7.67;6.33;;;;;18.17;74.38;101145.63;6250154;22;46106;-89
2021/09/27 08:20:53;;;;;;;;;10.33;7.00;;;;;18.15;74.60;101131.41;6248100;22;45256;-88
2021/09/27 08:23:20;;;;;;;;;11.67;9.00;;;;;18.21;74.65;101149.16;6246688;22;45269;-90
2021/09/27 08:25:46;;;;;;;;;9.00;7.67;;;;;18.23;74.72;101136.72;6247179;22;45157;-86
2021/09/27 08:28:13;;;;;;;;;7.00;5.67;;;;;18.23;74.72;101123.44;6245884;22;45906;-90
2021/09/27 08:30:47;;;;;;;;;7.00;7.00;;;;;18.26;75.01;101128.69;6245185;22;45341;-84
2021/09/27 08:33:13;;;;;;;;;8.67;7.67;;;;;18.28;74.88;101135.78;6245771;22;45316;-84
2021/09/27 08:35:38;;;;;;;;;8.33;8.33;;;;;18.29;74.40;101131.34;6246183;22;45237;-84
2021/09/27 08:38:06;;;;;;;;;9.67;9.33;;;;;18.33;74.73;101122.44;6245668;22;45161;-83
2021/09/27 08:40:32;;;;;;;;;7.00;7.00;;;;;18.34;74.75;101124.19;6218026;22;45215;-84
2021/09/27 08:43:02;;;;;;;;;12.33;10.67;;;;;18.37;74.71;101118.88;6246409;22;45255;-84
2021/09/27 08:45:31;;;;;;;;;9.67;9.33;;;;;18.38;74.66;101125.94;6246282;22;45206;-84
2021/09/27 08:48:05;;;;;;;;;11.67;8.00;;;;;18.38;74.50;101109.09;6245055;22;45483;-84
2021/09/27 08:50:37;;;;;;;;;12.00;6.67;;;;;18.43;74.59;101122.34;6217412;22;45264;-84
2021/09/27 08:53:22;;;;;;;;;9.67;8.33;;;;;18.40;74.50;101107.31;6245112;22;45288;-84
2021/09/27 08:55:50;;;;;;;;;12.33;7.33;;;;;18.51;74.83;101112.50;6245732;22;45235;-84
2021/09/27 08:58:49;;;;;;;;;8.33;6.67;;;;;18.54;74.81;101120.47;6245414;22;45405;-84
2021/09/27 09:01:26;;;;;;;;;9.67;8.67;;;;;18.57;74.67;101123.09;6245120;22;45450;-84
2021/09/27 09:04:11;;;;;;;;;11.00;9.00;;;;;18.57;74.56;101109.78;6246224;22;45276;-83
2021/09/27 09:06:45;;;;;;;;;11.67;10.00;;;;;18.57;74.68;101103.59;6246091;22;45388;-84
2021/09/27 09:09:16;;;;;;;;;11.33;8.00;;;;;18.61;74.54;101113.31;6244641;22;45598;-84
2021/09/27 09:11:51;;;;;;;;;9.67;8.00;;;;;18.63;74.50;101103.53;6245562;22;45362;-86
2021/09/27 09:14:41;;;;;;;;;10.33;10.33;;;;;18.62;74.49;101107.97;6245937;22;45232;-86
2021/09/27 09:17:32;;;;;;;;;7.00;7.00;;;;;18.65;74.17;101112.41;6217911;22;45534;-84
2021/09/27 09:20:01;;;;;;;;;10.33;8.00;;;;;18.66;74.22;101108.81;6244744;22;45970;-83
2021/09/27 09:22:41;;;;;;;;;9.00;8.00;;;;;18.63;74.47;101106.19;6246467;22;45260;-83
2021/09/27 09:25:20;;;;;;;;;10.67;9.00;;;;;18.70;74.42;101112.31;6248416;22;45251;-84
2021/09/27 09:27:46;;;;;;;;;8.00;8.00;;;;;18.72;74.38;101107.84;6246682;22;45164;-84
2021/09/27 09:30:12;;;;;;;;;9.33;9.33;;;;;18.74;74.36;101098.09;6245984;22;45781;-86
2021/09/27 09:32:38;;;;;;;;;10.33;7.00;;;;;18.75;74.19;101079.44;6246139;22;45338;-85
2021/09/27 09:35:27;;;;;;;;;12.33;7.00;;;;;18.92;74.15;101082.78;6247125;22;45175;-87
2021/09/27 09:38:01;;;;;;;;;7.00;6.00;;;;;18.97;74.00;101095.16;6246877;22;45209;-84
2021/09/27 09:40:33;;;;;;;;;9.33;9.00;;;;;19.07;73.76;101095.94;6245704;22;45697;-85
2021/09/27 09:43:24;;;;;;;;;11.67;8.00;;;;;19.19;74.04;101100.25;6245673;22;45268;-85
2021/09/27 09:46:02;;;;;;;;;6.00;5.00;;;;;19.45;73.50;101103.47;6246203;22;45181;-84
2021/09/27 09:48:27;;;;;;;;;7.00;7.00;;;;;19.58;73.11;101105.97;6246229;22;45222;-85
2021/09/27 09:50:57;;;;;;;;;9.33;8.00;;;;;19.62;72.71;101108.56;6245488;22;45350;-82
2021/09/27 09:53:32;;;;;;;;;7.00;7.00;;;;;19.66;72.53;101110.28;6246226;22;45370;-85
2021/09/27 09:56:07;;;;;;;;;11.33;6.00;;;;;19.63;72.32;101107.66;6218364;22;45316;-88
2021/09/27 09:58:44;;;;;;;;;6.67;6.00;;;;;19.63;72.11;101120.13;6218367;22;45469;-87
2021/09/27 10:01:23;;;;;;;;;5.00;5.00;;;;;19.60;71.98;101122.84;6218456;22;46131;-86
2021/09/27 10:04:05;;;;;;;;;7.67;6.00;;;;;19.59;71.96;101118.38;6246479;22;45271;-83
2021/09/27 10:06:57;;;;;;;;;7.67;5.67;;;;;19.54;71.83;101108.66;6246926;22;45137;-86
2021/09/27 10:09:35;;;;;;;;;6.33;5.00;;;;;19.56;71.11;101096.19;6247396;22;45110;-84
2021/09/27 10:12:06;;;;;;;;;7.00;4.00;;;;;19.48;70.91;101108.75;6247828;22;46269;-85
2021/09/27 10:14:34;;;;;;;;;8.00;5.00;;;;;19.54;70.66;101122.00;6247042;22;45323;-85
2021/09/27 10:17:08;;;;;;;;;5.33;5.33;;;;;19.51;70.35;101131.84;6247627;22;45302;-85
2021/09/27 10:19:39;;;;;;;;;6.67;6.00;;;;;19.47;70.68;101119.44;6220250;22;45558;-89
2021/09/27 10:22:12;;;;;;;;;5.00;4.00;;;;;19.43;70.80;101121.28;6247864;22;46060;-86
2021/09/27 10:24:42;;;;;;;;;4.67;4.67;;;;;19.40;71.40;101111.53;6220711;22;46335;-85
2021/09/27 10:27:19;;;;;;;;;5.00;5.00;;;;;19.38;71.28;101112.44;6247597;22;45158;-84
2021/09/27 10:29:45;;;;;;;;;5.00;5.00;;;;;19.36;71.48;101119.59;6220849;22;45280;-85
2021/09/27 10:32:33;;;;;;;;;6.00;6.00;;;;;19.33;71.63;101121.38;6245837;22;45466;-85
2021/09/27 10:35:05;;;;;;;;;6.33;5.00;;;;;19.32;72.23;101121.41;6245752;22;45280;-85
2021/09/27 10:37:31;;;;;;;;;7.33;5.33;;;;;19.35;72.66;101123.16;6226378;22;45260;-84
2021/09/27 10:39:57;;;;;;;;;5.33;4.33;;;;;19.31;72.26;101111.69;6258188;22;45217;-85
2021/09/27 10:42:39;;;;;;;;;4.00;4.00;;;;;19.32;71.77;101135.63;6262712;22;45542;-84
2021/09/27 10:45:06;;;;;;;;;4.00;4.00;;;;;19.28;72.25;101127.69;6266387;22;45222;-84
2021/09/27 10:47:35;;;;;;;;;7.33;6.33;;;;;19.18;72.02;101121.59;6268193;22;44638;-84
2021/09/27 10:50:32;;;;;;;;;5.00;4.33;;;;;19.19;72.67;101128.69;6258438;22;45306;-83
2021/09/27 10:53:14;;;;;;;;;10.33;7.00;;;;;19.16;72.49;101126.06;6266368;22;45212;-84
2021/09/27 10:55:52;;;;;;;;;7.67;5.00;;;;;19.12;73.07;101134.97;6248943;22;45298;-84
2021/09/27 10:58:55;;;;;;;;;8.00;7.00;;;;;19.14;73.12;101135.84;6248194;22;45114;-84
2021/09/27 11:01:50;;;;;;;;;6.00;4.67;;;;;19.09;73.16;101123.44;6066571;23;45193;-84
2021/09/27 11:04:18;;;;;;;;;7.00;4.67;;;;;19.12;73.41;101145.63;6042651;23;47107;-83
2021/09/27 11:06:55;;;;;;;;;6.67;5.33;;;;;19.10;73.53;101140.28;6067312;23;45325;-83
2021/09/27 11:09:29;;;;;;;;;9.00;7.00;;;;;19.10;73.24;101138.53;6066977;23;45458;-83
2021/09/27 11:12:12;;;;;;;;;6.67;6.67;;;;;19.12;74.00;101134.97;6066685;23;45210;-83
2021/09/27 11:14:51;;;;;;;;;6.67;6.67;;;;;19.12;73.66;101137.63;6083594;23;46606;-85
2021/09/27 11:17:23;;;;;;;;;6.67;4.67;;;;;19.17;73.70;101142.03;6090788;23;44706;-84
2021/09/27 11:20:04;;;;;;;;;5.33;4.67;;;;;19.17;73.62;101142.03;6091594;23;44695;-84
2021/09/27 11:22:41;;;;;;;;;7.00;5.67;;;;;19.16;74.02;101166.91;6091581;23;44726;-86
2021/09/27 11:25:33;;;;;;;;;5.33;5.00;;;;;19.16;73.87;101249.50;6090115;23;45274;-85
2021/09/27 11:28:08;;;;;;;;;1.00;1.00;;;;;19.12;72.31;101276.19;6066842;23;45339;-87
2021/09/27 11:30:51;;;;;;;;;2.25;0.75;;;;;18.93;71.10;101281.69;6036814;23;1302765;-84
2021/09/27 11:33:32;;;;;;;;;0.67;0.33;;;;;18.74;70.51;101276.53;6093296;23;44803;-83
2021/09/27 11:36:06;;;;;;;;;0.33;0.33;;;;;18.61;70.38;101270.41;6090773;23;45206;-84
2021/09/27 11:38:41;;;;;;;;;0.33;0.00;;;;;18.49;70.40;101280.25;6206309;22;45210;-83
2021/09/27 11:41:30;;;;;;;;;0.00;0.00;;;;;18.38;70.42;101285.63;6251942;22;45258;-85
2021/09/27 11:44:09;;;;;;;;;0.00;0.00;;;;;18.27;70.14;101293.69;6254915;22;45185;-85
2021/09/27 11:46:39;;;;;;;;;3.33;0.00;;;;;18.17;70.66;101303.50;6253141;22;45650;-84
2021/09/27 11:49:07;;;;;;;;;0.00;0.00;;;;;18.10;70.41;101300.84;6249784;22;45210;-85
2021/09/27 11:51:37;;;;;;;;;0.00;0.00;;;;;18.01;70.43;101296.44;6221272;22;45355;-84
2021/09/27 11:54:32;;;;;;;;;0.67;0.00;;;;;17.94;70.58;101301.81;6249968;22;45115;-85
2021/09/27 11:57:21;;;;;;;;;1.33;1.00;;;;;17.88;71.26;101299.16;6249123;22;46488;-85
2021/09/27 12:00:00;;;;;;;;;0.00;0.00;;;;;17.84;70.06;101305.38;6248171;22;45380;-85
2021/09/27 12:02:31;;;;;;;;;2.00;1.00;;;;;17.80;70.71;101320.47;6220363;22;45330;-84
2021/09/27 12:05:19;;;;;;;;;1.67;0.00;;;;;17.68;69.85;101312.53;6220794;22;45242;-85